Aérodrome :
LOGIN :

S'inscrire | Disclaimer

   EN    FR    IT 

 










Légende :    VFR   VFR Marginal   IFR   IFR Intensif   IFR Très Intensif
Visi : 
Plafond : 
>= 8 km
>= 3000ft
5 à 8 km
1000 à 3000 ft
1500m à 5 km
500 à 1000 ft
800 à 1500m
200 à 500 ft
< 800m
< 200 ft
Symboles :   Orages  Brouillard  Fortes neiges  Fortes précipitations  Vent > 20 kt
SIGMETs :   Divers  Orages  Givrage  Turbulence  Onde Orograph.  Cendres Volcan.






- Altitude de l'aérodrome : 267 ft


EGDR - Culdrose Navy

DERNIER METAR :
  • 291620Z 22012KT 9999 FEW014 BKN040 09/08 Q1012 BLU TEMPO SCT018 RMK BLU TEMPO WHT

METARs EXPIRÉS :
  • 291550Z 22011KT 9999 FEW014 BKN040 10/07 Q1012 BLU TEMPO SCT018 RMK BLU TEMPO WHT
  • 291526Z 22012KT 9999 FEW014 BKN040 11/08 Q1012 BLU TEMPO SCT018 RMK BLU TEMPO WHT
  • 291450Z 23012KT 9999 FEW014 SCT040 BKN220 11/07 Q1012 BLU TEMPO SCT018 RMK BLU TEMPO WHT
  • 291420Z 22013KT 9999 FEW014 BKN030 10/07 Q1012 BLU TEMPO SCT018 RMK BLU TEMPO WHT
  • 291350Z 23013G23KT 9999 FEW014 SCT025 BKN040 10/06 Q1012 BLU TEMPO SCT018 RMK BLU TEMPO WHT

TAF TAF EGDR
Valide du 29 à 15h jusqu'au 30 à 00h UTC


291337Z 2915/2924 23010KT 9999 FEW010 SCT025
PROB40
TEMPO 2915/2918 8000 -SHRA SCT018
TEMPO 2917/2923 SCT010
BECMG 2923/2924 18007KT 8000 BR SCT006



MET'MAP, la Météo Aéronautique d'un coup d'oeil ! - Copyright ORBIFLY Décembre 2007 - Disclaimer

ORBIFLY MET'MAP TEAM :

Programmation & Développement : Alexandra Zaïnal
Sur une idée originale de : Baudouin d'Aumeries
Assistance à la programmation : Marc-Olivier Méhu
Soutien technique & logistique : Manuel Goepfert

Contact : metmap@orbifly.com




SOURCES & CREDITS :

   NOAA